Station: Ouse  

  Atmospheric Gas Attenuation - ITU Rec 676-11   ----------------- dB/100km -----------------
Date Time Temp RH % AH g/m3 Dew Point Wind Direction Speed kph Gust kph Barometer mB Rainfall Since 9am 24GHz 47GHz 76GHz 122GHz 134GHz 241GHz
08/05 12:30 13.7 63 7.46 6.8 13 20 1016.1 0 17.2 24.2 35.5 92.9 84.0 287.9
08/05 12:20 13.2 60 6.89 5.6 13 15 1016.1 0 16.0 23.5 33.5 87.6 77.3 264.4
08/05 12:10 13.5 59 6.9 5.7 15 17 1016.1 0 16.0 23.4 33.4 87.4 77.1 263.9
08/05 12:00 14.4 59 7.29 6.5 19 30 1016.1 0 16.8 23.8 34.5 90.3 81.1 277.9
08/05 11:50 14.7 58 7.3 6.5 20 26 1016 0 16.8 23.7 34.4 90.1 80.9 277.3
08/05 11:40 15 57 7.31 6.6 19 24 1016 0 16.8 23.6 34.3 89.9 80.7 276.7
08/05 11:30 14.7 55 6.92 5.8 26 37 1015.8 0 16.0 23.1 33.0 86.3 76.2 260.8
08/05 11:20 14.7 55 6.92 5.8 26 32 1015.7 0 16.0 23.1 33.0 86.3 76.2 260.7
08/05 11:10 14.4 56 6.92 5.7 22 28 1015.6 0 16.0 23.2 33.1 86.6 76.5 261.7
08/05 11:00 14 59 7.12 6.1 19 30 1015.6 0 16.4 23.6 34.0 89.0 79.3 271.7
08/05 10:50 12.9 59 6.65 5.1 22 32 1015.6 0 15.5 23.2 32.7 85.5 74.6 254.8
08/05 10:40 12.7 62 6.9 5.6 17 20 1015.4 0 16.0 23.6 33.7 88.2 77.9 266.4
08/05 10:30 12.5 63 6.93 5.7 20 41 1015.2 0 16.1 23.7 33.9 88.7 78.4 268.3
08/05 10:20 12.7 62 6.9 5.6 17 24 1015 0 16.0 23.6 33.7 88.2 77.8 266.3
08/05 10:10 13.4 62 7.21 6.3 19 26 1014.8 0 16.6 23.9 34.6 90.5 81.0 277.6
08/05 10:00 13.6 58 6.83 5.5 17 30 1014.7 0 15.8 23.2 33.1 86.5 76.1 260.2
08/05 09:50 13.6 61 7.18 6.2 15 17 1014.8 0 16.6 23.8 34.4 90.0 80.4 275.5
08/05 09:40 13.4 64 7.44 6.7 19 22 1014.8 0 17.1 24.2 35.5 92.9 83.9 287.8
08/05 09:30 13.1 63 7.19 6.2 15 22 1014.6 0 16.6 23.9 34.6 90.7 81.1 277.7
08/05 09:20 12.5 64 7.04 5.9 11 17 1014.5 0 16.3 23.8 34.3 89.8 79.8 273.1
08/05 09:10 12.4 63 6.88 5.6 15 19 1014.5 0 16.0 23.6 33.7 88.3 77.9 266.3
08/05 09:00 12.5 66 7.26 6.3 9 17 1014.3 0 16.8 24.2 35.2 92.0 82.6 282.8
08/05 08:50 11.5 68 7.02 5.8 13 17 1014.2 2.2 16.3 24.0 34.7 90.7 80.5 275.6
08/05 08:40 11 69 6.91 5.5 7 13 1014 2.2 16.1 24.0 34.4 90.1 79.6 272.3
08/05 08:30 10.8 68 6.72 5.1 9 20 1013.8 2.2 15.7 23.7 33.8 88.3 77.4 264.4
08/05 08:20 10.7 68 6.68 5 11 13 1013.7 2.2 15.6 23.7 33.7 88.0 76.9 262.9
08/05 08:10 10.4 73 7.04 5.8 11 17 1013.5 2.2 16.4 24.4 35.2 92.1 81.9 280.2
08/05 08:00 10.1 72 6.81 5.3 7 13 1013.2 2.2 15.9 24.1 34.4 90.0 79.2 270.7
08/05 07:50 10.1 71 6.72 5.1 15 19 1013.1 2.2 15.7 23.9 34.0 89.0 78.0 266.5
08/05 07:40 10.1 71 6.72 5.1 13 15 1013 2.2 15.7 23.9 34.0 89.0 78.0 266.5
08/05 07:30 9.9 72 6.72 5.1 9 19 1012.9 2.2 15.7 24.0 34.1 89.2 78.2 267.2
08/05 07:20 9.9 72 6.72 5.1 13 17 1012.8 2.2 15.7 24.0 34.1 89.2 78.2 267.2
08/05 07:10 9.5 73 6.65 4.9 11 13 1012.5 2.2 15.6 23.9 34.0 88.9 77.7 265.3
08/05 07:00 9.8 72 6.68 5 13 20 1012.4 2.2 15.7 23.9 34.0 88.9 77.7 265.6
08/05 06:50 10.2 68 6.47 4.6 15 20 1012.2 2.2 15.2 23.5 33.0 86.2 74.6 254.8
08/05 06:40 10.4 65 6.27 4.1 9 13 1012.2 2.2 14.8 23.1 32.1 84.0 71.9 245.2
08/05 06:30 10.5 64 6.21 4 17 26 1011.9 2.2 14.6 23.0 31.9 83.2 71.0 242.2
08/05 06:20 10.7 64 6.29 4.2 22 35 1011.7 2.2 14.8 23.0 32.1 83.8 71.9 245.1
08/05 06:10 10.6 66 6.44 4.5 30 41 1011.6 2.2 15.1 23.3 32.7 85.4 73.8 252.0
08/05 06:00 10.1 73 6.9 5.5 20 32 1011.3 2.2 16.1 24.1 34.7 90.8 80.2 274.3
08/05 05:50 10.4 72 6.94 5.6 19 28 1011.1 2.2 16.2 24.1 34.7 90.8 80.4 275.1
08/05 05:40 10.4 72 6.94 5.6 30 39 1010.9 2.2 16.2 24.1 34.7 90.8 80.4 275.0
08/05 05:30 9.8 77 7.15 6 19 24 1010.6 2.2 16.7 24.6 35.8 93.7 83.8 286.7
08/05 05:20 9.6 80 7.33 6.3 17 20 1010.6 2.2 17.1 24.9 36.6 95.9 86.4 295.8
08/05 05:10 10.2 76 7.23 6.2 17 22 1010.5 2.2 16.8 24.6 35.9 94.1 84.4 288.9
08/05 05:00 10.2 75 7.14 6 13 26 1010 2 16.6 24.4 35.5 93.1 83.1 284.6
08/05 04:50 10 76 7.14 6 13 17 1009.9 2 16.6 24.5 35.6 93.3 83.4 285.3
08/05 04:40 10 77 7.24 6.2 15 17 1010 2 16.9 24.7 36.0 94.4 84.7 290.0
08/05 04:30 10.2 75 7.14 6 17 22 1009.6 2 16.6 24.4 35.5 93.0 83.1 284.5
08/05 04:20 10.1 76 7.19 6.1 11 13 1009.5 2 16.7 24.5 35.7 93.7 83.9 287.2
08/05 04:10 10.2 76 7.23 6.2 13 17 1009.3 2 16.8 24.6 35.9 93.9 84.3 288.6
08/05 04:00 9.8 79 7.33 6.3 9 13 1009.4 2 17.1 24.8 36.4 95.5 86.0 294.7
08/05 03:50 10.1 77 7.28 6.3 11 13 1009.3 2 16.9 24.7 36.1 94.6 85.0 291.3
08/05 03:40 10.3 76 7.28 6.3 13 15 1009.1 2 16.9 24.6 36.0 94.3 84.8 290.5
08/05 03:30 10.4 75 7.23 6.2 20 33 1009.1 1.8 16.8 24.5 35.8 93.7 84.0 287.8
08/05 03:20 10.9 69 6.86 5.4 20 28 1008.7 1.6 16.0 23.8 34.1 89.2 78.7 269.2
08/05 03:10 10.9 68 6.77 5.2 11 13 1008.6 1.6 15.8 23.6 33.7 88.2 77.5 265.1
08/05 03:00 11 68 6.81 5.3 13 20 1008.4 1.6 15.9 23.6 33.8 88.5 77.9 266.5
08/05 02:50 11.1 67 6.75 5.2 13 15 1008.3 1.6 15.8 23.5 33.5 87.8 77.1 263.5
08/05 02:40 11.3 66 6.73 5.2 9 11 1008.3 1.6 15.7 23.4 33.4 87.4 76.6 261.9
08/05 02:30 11.2 67 6.79 5.3 11 19 1008.1 1.6 15.8 23.5 33.6 88.1 77.5 264.9
08/05 02:20 11.1 67 6.75 5.2 17 20 1008.1 1.6 15.8 23.5 33.5 87.8 77.1 263.4
08/05 02:10 11.1 67 6.75 5.2 15 19 1008 1.6 15.8 23.5 33.5 87.8 77.0 263.4
08/05 02:00 11 69 6.91 5.5 15 28 1008 1.6 16.1 23.8 34.2 89.5 79.2 270.9
08/05 01:50 11.1 70 7.05 5.8 13 17 1008 1.6 16.4 24.0 34.7 90.9 80.9 276.9
08/05 01:40 11 70 7.01 5.7 9 11 1007.9 1.6 16.3 23.9 34.6 90.6 80.5 275.4
08/05 01:30 11 71 7.11 6 13 20 1007.9 1.6 16.5 24.1 35.0 91.6 81.8 279.9
08/05 01:20 11.1 68 6.85 5.4 15 15 1007.7 1.6 16.0 23.7 33.9 88.8 78.3 267.8
08/05 01:10 10.9 70 6.96 5.7 19 26 1007.5 1.6 16.2 23.9 34.4 90.1 79.9 273.4
08/05 01:00 10.2 71 6.76 5.2 7 15 1007.2 1.6 15.8 23.7 33.9 88.8 78.0 266.7
08/05 00:50 10.9 67 6.67 5 11 15 1007.1 1.6 15.6 23.4 33.3 87.1 76.2 260.3
08/05 00:40 10.8 68 6.72 5.1 19 24 1007 1.6 15.7 23.5 33.5 87.7 76.9 262.8
08/05 00:30 11.1 69 6.95 5.6 17 35 1006.9 1.6 16.2 23.8 34.3 89.7 79.5 272.1
08/05 00:20 10.4 81 7.81 7.3 13 20 1006.8 1.6 18.1 25.3 38.0 99.7 91.6 314.1
08/05 00:10 9.4 88 7.96 7.5 11 11 1006.8 1.6 18.4 25.9 39.1 102.6 94.8 325.3
08/05 00:00 9.7 88 8.11 7.8 9 13 1006.6 1.6 18.7 26.0 39.6 103.9 96.4 331.2
07/05 23:50 10.3 87 8.33 8.2 6 7 1006.6 1.6 19.2 26.2 40.2 105.5 98.7 339.1
07/05 23:40 11.1 84 8.46 8.5 7 9 1006.5 1.4 19.4 26.2 40.3 105.8 99.4 341.8
07/05 23:30 10.5 87 8.44 8.4 11 17 1006.4 1.4 19.4 26.3 40.5 106.4 99.9 343.5
07/05 23:20 10.1 87 8.23 8 9 13 1006.2 1.4 19.0 26.1 39.8 104.6 97.5 335.1
07/05 23:10 10.5 86 8.34 8.3 7 9 1006 1.4 19.2 26.2 40.1 105.3 98.5 338.6
07/05 23:00 9.9 88 8.22 8 15 20 1006 1.4 19.0 26.1 39.9 104.7 97.6 335.4
07/05 22:50 10 88 8.27 8.1 13 17 1006.1 1.4 19.1 26.2 40.0 105.2 98.2 337.4
07/05 22:40 9.8 88 8.17 7.9 19 22 1006.1 1.4 18.9 26.1 39.7 104.3 97.1 333.5
07/05 22:30 9.6 88 8.06 7.7 19 24 1006 1.4 18.6 26.0 39.4 103.4 95.8 329.1
07/05 22:20 9.3 90 8.09 7.7 20 22 1006.2 1.4 18.7 26.1 39.7 104.1 96.6 331.8
07/05 22:10 9 90 7.94 7.5 17 20 1006.2 1.4 18.4 25.9 39.2 102.9 95.0 325.9
07/05 22:00 9.3 88 7.91 7.4 13 20 1006.5 1.4 18.3 25.8 38.9 102.2 94.2 323.3
07/05 21:50 9.3 87 7.82 7.3 13 15 1006.4 1.4 18.1 25.7 38.5 101.2 93.0 319.0
07/05 21:40 9.7 86 7.93 7.5 13 17 1006.5 1.4 18.4 25.7 38.8 101.9 94.0 322.6
07/05 21:30 9.5 88 8.01 7.6 13 20 1006.6 1.2 18.5 25.9 39.2 103.0 95.3 327.3
07/05 21:20 9 89 7.85 7.3 20 32 1006.8 1 18.2 25.8 38.8 101.9 93.8 321.7
07/05 21:10 8.9 88 7.71 7 9 11 1006.5 0.8 17.9 25.6 38.3 100.5 92.0 315.4
07/05 21:00 8.9 88 7.71 7 9 19 1006.6 0.8 17.9 25.6 38.3 100.5 92.0 315.4
07/05 20:50 8.4 88 7.47 6.5 7 9 1006.8 0.6 17.4 25.4 37.6 98.5 89.3 306.0
07/05 20:40 8.3 86 7.25 6.1 9 11 1006.8 0.6 16.9 25.0 36.7 96.2 86.5 296.0
07/05 20:30 8.3 85 7.17 5.9 13 20 1006.9 0.6 16.8 24.9 36.4 95.3 85.4 292.3
07/05 20:20 8.2 83 6.95 5.5 13 17 1007 0.4 16.3 24.6 35.5 93.1 82.6 282.3
07/05 20:10 8.4 81 6.87 5.3 17 20 1007 0.4 16.1 24.4 35.1 92.0 81.3 277.9
07/05 20:00 8.5 80 6.83 5.3 17 24 1007.1 0.4 16.0 24.3 34.9 91.5 80.7 275.7

Last Refresh: 08-May-2026 12:08:29

Bureau of Meteorology